createdAt,value
2023-06-03T00:00:06.443Z,84.22
2023-06-03T00:05:08.444Z,88.17
2023-06-03T00:10:10.562Z,91.34
2023-06-03T00:15:12.499Z,91.77
2023-06-03T00:20:14.947Z,90.92
2023-06-03T00:25:16.846Z,91.37
2023-06-03T00:30:18.605Z,92.24
2023-06-03T00:35:20.551Z,92.26
2023-06-03T00:40:22.373Z,92.86
2023-06-03T00:45:24.292Z,94.37
2023-06-03T00:50:26.392Z,95.11
2023-06-03T00:55:28.379Z,96.94
2023-06-03T01:00:30.096Z,98.23
2023-06-03T01:05:32.056Z,100.00
2023-06-03T01:11:08.941Z,100.00
2023-06-03T01:16:13.947Z,100.00
2023-06-03T01:21:16.361Z,100.00
2023-06-03T01:26:18.200Z,100.00
2023-06-03T01:31:20.225Z,100.00
2023-06-03T01:36:22.225Z,100.00
2023-06-03T01:41:25.373Z,99.84
2023-06-03T01:46:27.810Z,99.44
2023-06-03T01:51:29.696Z,100.00
2023-06-03T01:56:32.072Z,100.00
2023-06-03T02:01:35.754Z,100.00
2023-06-03T02:06:37.436Z,100.00
2023-06-03T02:11:47.124Z,100.00
2023-06-03T02:16:49.066Z,100.00
2023-06-03T02:21:50.950Z,100.00
2023-06-03T02:26:52.604Z,100.00
2023-06-03T02:31:57.717Z,100.00
2023-06-03T02:36:59.454Z,100.00
2023-06-03T02:42:01.423Z,100.00
2023-06-03T02:47:06.958Z,100.00
2023-06-03T02:52:08.891Z,100.00
2023-06-03T02:57:10.879Z,100.00
2023-06-03T03:02:12.761Z,100.00
2023-06-03T03:07:14.716Z,100.00
2023-06-03T03:12:16.710Z,100.00
2023-06-03T03:17:20.488Z,100.00
2023-06-03T03:22:23.294Z,100.00
2023-06-03T03:27:26.156Z,100.00
2023-06-03T03:32:28.402Z,100.00
2023-06-03T03:37:30.673Z,100.00
2023-06-03T03:42:32.947Z,100.00
2023-06-03T03:47:35.628Z,100.00
2023-06-03T03:52:38.148Z,100.00
2023-06-03T03:57:40.634Z,100.00
2023-06-03T04:02:43.729Z,100.00
2023-06-03T04:07:46.964Z,100.00
2023-06-03T04:12:49.114Z,100.00
2023-06-03T04:17:53.002Z,100.00
2023-06-03T04:22:55.385Z,100.00
2023-06-03T04:27:57.477Z,100.00
2023-06-03T04:32:59.546Z,100.00
2023-06-03T04:38:04.760Z,100.00
2023-06-03T04:43:06.711Z,100.00
2023-06-03T04:48:13.355Z,100.00
2023-06-03T04:53:15.356Z,100.00
2023-06-03T04:58:17.691Z,100.00
2023-06-03T05:03:19.868Z,100.00
2023-06-03T05:08:22.112Z,90.68
2023-06-03T05:13:27.063Z,81.97
2023-06-03T05:18:29.076Z,71.30
2023-06-03T05:23:31.011Z,67.08
2023-06-03T05:28:33.156Z,60.13
2023-06-03T05:33:35.680Z,59.06
2023-06-03T05:38:43.050Z,55.81
2023-06-03T05:43:47.574Z,52.81
2023-06-03T05:48:49.379Z,56.27
2023-06-03T05:53:52.295Z,57.89
2023-06-03T05:58:58.594Z,54.49
2023-06-03T06:04:01.798Z,55.66
2023-06-03T06:09:04.345Z,51.37
2023-06-03T06:14:06.571Z,51.66
2023-06-03T06:19:08.398Z,47.67
2023-06-03T06:24:12.319Z,45.89
2023-06-03T06:29:14.770Z,45.97
2023-06-03T06:34:17.735Z,45.54
2023-06-03T06:39:34.220Z,45.65
2023-06-03T06:44:46.226Z,44.48
2023-06-03T06:49:49.562Z,43.69
2023-06-03T06:54:54.303Z,42.53
2023-06-03T06:59:57.545Z,42.63
2023-06-03T07:05:00.360Z,40.02
2023-06-03T07:10:03.361Z,38.85
2023-06-03T07:15:05.791Z,39.90
2023-06-03T07:20:08.143Z,39.36
2023-06-03T07:25:20.777Z,40.29
2023-06-03T07:30:22.851Z,41.26
2023-06-03T07:35:24.700Z,41.44
2023-06-03T07:40:41.920Z,41.47
2023-06-03T07:45:44.224Z,40.18
2023-06-03T07:50:47.638Z,38.99
2023-06-03T07:55:49.711Z,39.33
2023-06-03T08:00:52.339Z,37.41
2023-06-03T08:05:54.021Z,37.36
2023-06-03T08:10:55.673Z,40.00
2023-06-03T08:15:57.480Z,38.89
2023-06-03T08:21:03.522Z,39.00
2023-06-03T08:26:05.758Z,37.71
2023-06-03T08:31:08.155Z,38.08
2023-06-03T08:36:09.890Z,36.23
2023-06-03T08:41:11.644Z,36.70
2023-06-03T08:46:23.351Z,35.72
2023-06-03T08:51:25.072Z,37.21
2023-06-03T08:56:27.963Z,38.38
2023-06-03T09:01:39.696Z,38.75
2023-06-03T09:06:45.074Z,38.62
2023-06-03T09:11:47.064Z,38.13
2023-06-03T09:16:48.848Z,38.24
2023-06-03T09:21:53.173Z,38.31
2023-06-03T09:26:56.130Z,36.48
2023-06-03T09:31:58.684Z,36.96
2023-06-03T09:37:08.120Z,35.70
2023-06-03T09:42:10.247Z,35.55
2023-06-03T09:47:12.411Z,35.41
2023-06-03T09:52:34.361Z,33.38
2023-06-03T09:57:38.293Z,33.53
2023-06-03T10:02:43.398Z,31.75
2023-06-03T10:07:48.671Z,33.22
2023-06-03T10:12:51.486Z,32.09
2023-06-03T10:17:53.215Z,31.73
2023-06-03T10:22:55.192Z,30.91
2023-06-03T10:27:57.937Z,32.50
2023-06-03T10:33:01.418Z,31.25
2023-06-03T10:38:05.028Z,30.96
2023-06-03T10:43:10.277Z,31.05
2023-06-03T10:48:16.447Z,32.50
2023-06-03T10:53:45.885Z,30.67
2023-06-03T10:59:00.357Z,31.85
2023-06-03T11:04:02.025Z,30.94
2023-06-03T11:09:08.296Z,28.76
2023-06-03T11:14:40.179Z,29.79
2023-06-03T11:19:56.294Z,30.44
2023-06-03T11:24:59.383Z,26.56
2023-06-03T11:30:03.366Z,28.00
2023-06-03T11:35:05.667Z,29.14
2023-06-03T11:40:08.267Z,26.17
2023-06-03T11:45:22.196Z,26.85
2023-06-03T11:50:27.587Z,28.72
2023-06-03T11:55:34.561Z,28.07
2023-06-03T12:00:36.675Z,27.63
2023-06-03T12:05:55.563Z,27.11
2023-06-03T12:10:57.165Z,27.24
2023-06-03T12:15:58.962Z,27.85
2023-06-03T12:21:23.073Z,25.89
2023-06-03T12:26:25.987Z,28.42
2023-06-03T12:31:28.115Z,28.39
2023-06-03T12:36:50.133Z,29.08
2023-06-03T12:41:53.044Z,28.40
2023-06-03T12:47:02.337Z,28.64
2023-06-03T12:52:21.933Z,28.51
2023-06-03T12:57:24.462Z,27.61
2023-06-03T13:02:26.748Z,26.10
2023-06-03T13:07:29.834Z,24.36
2023-06-03T13:12:32.766Z,25.31
2023-06-03T13:17:35.853Z,25.30
2023-06-03T13:22:40.455Z,25.47
2023-06-03T13:27:42.274Z,28.83
2023-06-03T13:32:44.553Z,24.37
2023-06-03T13:37:46.274Z,26.32
2023-06-03T13:42:49.489Z,22.96
2023-06-03T13:47:52.011Z,24.92
2023-06-03T13:52:53.739Z,28.19
2023-06-03T13:57:55.748Z,27.25
2023-06-03T14:02:57.737Z,26.64
2023-06-03T14:07:59.690Z,26.43
2023-06-03T14:13:01.716Z,25.80
2023-06-03T14:18:03.979Z,26.58
2023-06-03T14:23:06.763Z,24.35
2023-06-03T14:28:08.525Z,24.22
2023-06-03T14:33:10.823Z,23.62
2023-06-03T14:38:12.482Z,25.96
2023-06-03T14:43:15.382Z,24.96
2023-06-03T14:48:17.452Z,23.12
2023-06-03T14:53:19.336Z,22.58
2023-06-03T14:58:21.573Z,22.47
2023-06-03T15:03:23.442Z,25.10
2023-06-03T15:08:26.699Z,25.81
2023-06-03T15:13:28.542Z,25.85
2023-06-03T15:18:30.759Z,26.22
2023-06-03T15:23:32.855Z,25.92
2023-06-03T15:28:34.768Z,26.45
2023-06-03T15:33:36.422Z,25.47
2023-06-03T15:38:38.190Z,26.97
2023-06-03T15:43:40.056Z,26.40
2023-06-03T15:48:41.834Z,26.12
2023-06-03T15:53:43.555Z,26.95
2023-06-03T15:58:45.427Z,26.71
2023-06-03T16:03:47.316Z,25.76
2023-06-03T16:08:49.487Z,24.85
2023-06-03T16:13:51.577Z,25.33
2023-06-03T16:18:53.143Z,26.27
2023-06-03T16:23:54.933Z,26.55
2023-06-03T16:28:56.939Z,26.75
2023-06-03T16:34:01.182Z,25.91
2023-06-03T16:39:03.297Z,26.52
2023-06-03T16:44:05.254Z,26.44
2023-06-03T16:49:07.156Z,26.59
2023-06-03T16:54:09.244Z,26.99
2023-06-03T16:59:11.162Z,26.27
2023-06-03T17:04:12.836Z,25.99
2023-06-03T17:09:15.268Z,26.96
2023-06-03T17:14:17.094Z,27.44
2023-06-03T17:19:19.166Z,27.78
2023-06-03T17:24:21.101Z,27.29
2023-06-03T17:29:23.216Z,26.96
2023-06-03T17:34:25.263Z,26.93
2023-06-03T17:39:27.246Z,27.56
2023-06-03T17:44:29.179Z,26.34
2023-06-03T17:49:31.307Z,26.98
2023-06-03T17:54:33.218Z,27.57
2023-06-03T17:59:36.294Z,27.92
2023-06-03T18:04:38.330Z,27.44
2023-06-03T18:09:40.354Z,27.88
2023-06-03T18:14:42.501Z,27.87
2023-06-03T18:19:44.832Z,28.56
2023-06-03T18:24:46.810Z,28.92
2023-06-03T18:29:48.886Z,29.59
2023-06-03T18:34:51.035Z,30.25
2023-06-03T18:39:53.758Z,30.60
2023-06-03T18:44:55.376Z,30.56
2023-06-03T18:49:57.380Z,30.99
2023-06-03T18:54:59.310Z,31.97
2023-06-03T19:00:04.464Z,31.61
2023-06-03T19:05:06.729Z,32.33
2023-06-03T19:10:09.329Z,32.55
2023-06-03T19:15:13.498Z,32.92
2023-06-03T19:20:15.757Z,33.85
2023-06-03T19:30:19.870Z,34.28
2023-06-03T19:35:21.932Z,33.83
2023-06-03T19:40:23.952Z,34.38
2023-06-03T19:45:27.503Z,34.76
2023-06-03T19:50:30.559Z,34.42
2023-06-03T19:55:32.172Z,34.92
2023-06-03T20:00:34.329Z,35.18
2023-06-03T20:05:36.737Z,35.28
2023-06-03T20:10:39.532Z,35.67
2023-06-03T20:15:41.188Z,35.54
2023-06-03T20:20:43.198Z,35.41
2023-06-03T20:25:44.891Z,35.51
2023-06-03T20:30:46.766Z,35.67
2023-06-03T20:35:48.652Z,36.00
2023-06-03T20:40:50.276Z,36.53
2023-06-03T20:45:52.639Z,36.47
2023-06-03T20:50:55.189Z,36.67
2023-06-03T20:55:57.150Z,37.15
2023-06-03T21:00:59.057Z,37.19
2023-06-03T21:06:00.673Z,37.03
2023-06-03T21:11:02.891Z,37.44
2023-06-03T21:16:04.891Z,37.72
2023-06-03T21:21:06.780Z,37.94
2023-06-03T21:26:08.778Z,38.30
2023-06-03T21:31:10.783Z,38.63
2023-06-03T21:36:12.596Z,38.64
2023-06-03T21:41:14.274Z,39.02
2023-06-03T21:46:15.925Z,39.11
2023-06-03T21:51:18.151Z,39.43
2023-06-03T21:56:20.019Z,40.00
2023-06-03T22:01:21.695Z,40.56
2023-06-03T22:06:24.326Z,41.02
2023-06-03T22:11:26.785Z,40.65
2023-06-03T22:16:28.634Z,41.73
2023-06-03T22:21:30.413Z,41.98
2023-06-03T22:26:32.078Z,42.49
2023-06-03T22:31:34.833Z,43.32
2023-06-03T22:36:37.081Z,44.46
2023-06-03T22:41:38.702Z,44.82
2023-06-03T22:46:40.512Z,49.19
2023-06-03T22:51:42.269Z,52.58
2023-06-03T22:56:43.919Z,51.95
2023-06-03T23:01:45.656Z,51.88
2023-06-03T23:06:47.291Z,52.70
2023-06-03T23:11:48.894Z,55.10
2023-06-03T23:16:50.607Z,56.30
2023-06-03T23:21:54.424Z,57.83
2023-06-03T23:26:56.153Z,64.33
2023-06-03T23:31:57.993Z,63.88
2023-06-03T23:36:59.665Z,63.82
2023-06-03T23:42:01.445Z,63.29
2023-06-03T23:47:03.236Z,62.28
2023-06-03T23:52:05.263Z,62.69
2023-06-03T23:57:06.913Z,62.23
